Time;durP1;ratioP1;P1;durP2;ratioP2;P2;SDS_P1;SDS_P2;PMS_P1;PMS_P2;Temp;Humidity;BMP_temperature;BMP_pressure;BME280_temperature;BME280_humidity;BME280_pressure;Samples;Min_cycle;Max_cycle;Signal;HPM_P1;HPM_P2
2022/04/03 00:00:42;;;;;;;2.97;2.65;;;;;;;-0.23;85.55;97068.06;5047245;28;20048;-67
2022/04/03 00:03:08;;;;;;;4.75;3.22;;;;;;;-0.22;85.35;97076.72;5049061;28;20088;-67
2022/04/03 00:05:42;;;;;;;4.60;3.65;;;;;;;-0.22;85.46;97071.47;5038372;28;20044;-67
2022/04/03 00:08:08;;;;;;;;;;;;;;;-0.13;85.35;97070.88;5054022;28;20132;-68
2022/04/03 00:10:34;;;;;;;3.92;2.63;;;;;;;-0.20;85.39;97072.22;5055706;28;20375;-66
2022/04/03 00:12:59;;;;;;;3.95;2.53;;;;;;;-0.21;85.18;97067.91;5037235;28;20047;-68
2022/04/03 00:15:24;;;;;;;3.13;2.83;;;;;;;-0.23;84.93;97075.06;5055891;28;20040;-67
2022/04/03 00:17:49;;;;;;;3.25;2.38;;;;;;;-0.24;84.97;97070.78;5053158;28;20121;-66
2022/04/03 00:20:14;;;;;;;3.40;2.65;;;;;;;-0.24;85.17;97069.00;5057221;28;20036;-66
2022/04/03 00:22:39;;;;;;;3.65;3.10;;;;;;;-0.24;85.36;97069.00;5056662;28;20051;-69
2022/04/03 00:25:04;;;;;;;3.38;2.72;;;;;;;-0.25;85.20;97074.34;5057473;28;20043;-73
2022/04/03 00:27:29;;;;;;;3.63;2.78;;;;;;;-0.25;85.14;97072.56;5057787;28;20418;-71
2022/04/03 00:29:54;;;;;;;3.78;2.85;;;;;;;-0.23;85.01;97080.31;5057761;28;20395;-72
2022/04/03 00:32:19;;;;;;;3.85;2.45;;;;;;;-0.23;85.36;97075.06;5055925;28;20043;-69
2022/04/03 00:34:44;;;;;;;2.88;2.58;;;;;;;-0.23;85.22;97083.75;5056569;28;20043;-69
2022/04/03 00:37:09;;;;;;;2.63;2.22;;;;;;;-0.21;84.88;97074.00;5056958;28;20051;-69
2022/04/03 00:39:34;;;;;;;4.20;3.10;;;;;;;-0.20;85.17;97072.22;5038970;28;20046;-68
2022/04/03 00:41:58;;;;;;;4.15;3.30;;;;;;;-0.21;85.11;97062.69;5045753;28;20087;-72
2022/04/03 00:44:24;;;;;;;3.97;3.00;;;;;;;-0.22;84.87;97064.47;5054420;28;20422;-70
2022/04/03 00:46:49;;;;;;;4.20;3.03;;;;;;;-0.22;84.95;97067.09;5056952;28;20044;-69
2022/04/03 00:49:14;;;;;;;3.03;2.63;;;;;;;-0.23;85.19;97065.44;5056987;28;20044;-69
2022/04/03 00:51:39;;;;;;;2.90;2.60;;;;;;;-0.19;85.03;97061.63;5056613;28;20040;-69
2022/04/03 00:54:04;;;;;;;2.75;2.55;;;;;;;-0.21;84.99;97068.75;5056924;28;20048;-68
2022/04/03 00:56:32;;;;;;;3.67;2.67;;;;;;;-0.19;85.07;97058.19;5056445;28;20048;-69
2022/04/03 00:58:57;;;;;;;3.22;2.92;;;;;;;-0.20;84.88;97061.75;5037374;28;20515;-77
2022/04/03 01:01:22;;;;;;;3.90;2.72;;;;;;;-0.20;84.86;97059.13;5024734;28;20392;-74
2022/04/03 01:03:48;;;;;;;4.68;3.35;;;;;;;-0.21;84.78;97060.06;5038985;28;20067;-74
2022/04/03 01:06:13;;;;;;;2.45;2.25;;;;;;;-0.22;85.02;97055.78;5056837;28;20043;-74
2022/04/03 01:08:38;;;;;;;2.95;2.65;;;;;;;-0.23;84.87;97057.59;5054999;28;20040;-71
2022/04/03 01:11:03;;;;;;;2.67;2.47;;;;;;;-0.23;85.05;97054.97;5042435;28;20509;-71
2022/04/03 01:13:27;;;;;;;3.63;2.92;;;;;;;-0.21;84.92;97054.84;5046782;28;20040;-76
2022/04/03 01:15:57;;;;;;;3.22;2.92;;;;;;;-0.22;84.69;97051.38;5056513;28;20044;-74
2022/04/03 01:18:24;;;;;;;3.83;2.95;;;;;;;-0.22;84.65;97047.91;5056956;28;20055;-74
2022/04/03 01:20:52;;;;;;;3.63;3.15;;;;;;;-0.22;84.79;97047.91;5037687;28;20093;-73
2022/04/03 01:23:17;;;;;;;3.15;2.70;;;;;;;-0.21;84.79;97062.69;5039194;28;20046;-74
2022/04/03 01:25:42;;;;;;;3.33;2.85;;;;;;;-0.24;84.84;97042.81;5056321;28;20122;-71
2022/04/03 01:28:08;;;;;;;4.88;3.75;;;;;;;-0.22;85.07;97056.59;5056244;28;20499;-70
2022/04/03 01:30:33;;;;;;;3.42;3.13;;;;;;;-0.21;84.99;97044.34;5056368;28;20040;-70
2022/04/03 01:32:58;;;;;;;3.80;3.15;;;;;;;-0.22;84.93;97042.69;5056463;28;20147;-72
2022/04/03 01:35:23;;;;;;;4.13;3.70;;;;;;;-0.22;84.67;97055.78;5057409;28;20134;-73
2022/04/03 01:37:48;;;;;;;4.22;3.33;;;;;;;-0.22;84.84;97046.13;5056066;28;20498;-72
2022/04/03 01:40:13;;;;;;;3.47;3.08;;;;;;;-0.21;84.65;97054.84;5056256;28;20654;-71
2022/04/03 01:42:37;;;;;;;3.30;2.92;;;;;;;-0.22;84.67;97054.00;5054922;28;20048;-71
2022/04/03 01:45:03;;;;;;;3.92;3.25;;;;;;;-0.20;84.82;97049.50;5056152;28;20047;-72
2022/04/03 01:47:29;;;;;;;4.30;3.55;;;;;;;-0.21;84.41;97054.84;5052352;28;20048;-71
2022/04/03 01:49:54;;;;;;;4.13;3.53;;;;;;;-0.19;84.59;97042.47;5037767;28;20040;-71
2022/04/03 01:52:19;;;;;;;4.70;3.72;;;;;;;-0.22;84.87;97040.91;5055188;28;20044;-70
2022/04/03 01:54:44;;;;;;;4.20;3.50;;;;;;;-0.20;84.30;97043.41;5053215;28;20039;-70
2022/04/03 01:57:09;;;;;;;5.38;3.88;;;;;;;-0.22;84.74;97045.31;5054684;28;20656;-69
2022/04/03 01:59:34;;;;;;;6.47;3.95;;;;;;;-0.21;84.56;97041.75;5056176;28;20104;-71
2022/04/03 02:01:59;;;;;;;6.07;3.80;;;;;;;-0.22;84.48;97048.75;5053630;28;20047;-71
2022/04/03 02:04:24;;;;;;;4.53;4.00;;;;;;;-0.21;84.56;97036.50;5048513;28;20043;-72
2022/04/03 02:06:48;;;;;;;4.85;3.83;;;;;;;-0.22;84.44;97055.78;5049716;28;20043;-78
2022/04/03 02:09:13;;;;;;;4.25;3.67;;;;;;;-0.21;84.43;97031.25;5047667;28;20051;-78
2022/04/03 02:11:38;;;;;;;3.92;3.55;;;;;;;-0.22;84.87;97033.03;5043445;28;20047;-77
2022/04/03 02:14:05;;;;;;;4.32;3.10;;;;;;;-0.22;84.63;97030.44;5057966;28;20046;-77
2022/04/03 02:16:29;;;;;;;4.82;3.60;;;;;;;-0.24;84.57;97034.13;5048003;28;20504;-78
2022/04/03 02:18:54;;;;;;;3.97;3.38;;;;;;;-0.24;84.08;97032.34;5055849;28;20449;-73
2022/04/03 02:21:19;;;;;;;4.45;3.83;;;;;;;-0.22;84.25;97029.59;5053818;28;20040;-67
2022/04/03 02:23:43;;;;;;;4.90;3.88;;;;;;;-0.24;84.42;97021.03;5068031;28;20407;-74
2022/04/03 02:26:08;;;;;;;4.43;3.97;;;;;;;-0.22;84.05;97029.59;5036957;28;20555;-67
2022/04/03 02:28:33;;;;;;;3.78;2.95;;;;;;;-0.23;84.12;97023.56;5054954;28;20132;-67
2022/04/03 02:30:58;;;;;;;5.28;4.07;;;;;;;-0.23;84.01;97020.94;5054747;28;20047;-67
2022/04/03 02:33:23;;;;;;;3.95;3.20;;;;;;;-0.23;83.80;97012.25;5055378;28;20047;-67
2022/04/03 02:35:47;;;;;;;5.55;3.30;;;;;;;-0.24;83.97;97027.09;5055409;28;20121;-67
2022/04/03 02:38:15;;;;;;;3.78;3.30;;;;;;;-0.24;84.25;97018.41;5055146;28;20157;-67
2022/04/03 02:40:40;;;;;;;4.70;3.65;;;;;;;-0.26;83.80;97015.06;5055507;28;20047;-67
2022/04/03 02:43:06;;;;;;;3.45;3.10;;;;;;;-0.24;83.66;97018.41;5054544;28;20063;-68
2022/04/03 02:45:31;;;;;;;4.82;3.65;;;;;;;-0.25;83.14;97014.97;5045196;28;20036;-66
2022/04/03 02:47:56;;;;;;;3.47;3.17;;;;;;;-0.23;83.53;97025.31;5054336;28;20044;-68
2022/04/03 02:50:22;;;;;;;3.15;2.85;;;;;;;-0.21;83.58;97032.09;5028126;28;20788;-67
2022/04/03 02:52:48;;;;;;;4.25;3.35;;;;;;;-0.22;83.65;97032.22;5054865;28;20122;-68
2022/04/03 02:55:13;;;;;;;4.40;3.58;;;;;;;-0.20;84.07;97032.94;5055828;28;20079;-68
2022/04/03 02:57:38;;;;;;;4.28;2.97;;;;;;;-0.23;83.58;97026.16;5055508;28;20071;-68
2022/04/03 03:00:05;;;;;;;4.38;3.08;;;;;;;-0.23;83.61;97031.41;5055280;28;20044;-69
2022/04/03 03:02:29;;;;;;;3.50;2.75;;;;;;;-0.26;83.42;97036.84;5055628;28;20482;-68
2022/04/03 03:04:54;;;;;;;5.07;3.10;;;;;;;-0.26;83.81;97028.16;5055044;28;20517;-68
2022/04/03 03:07:21;;;;;;;3.92;3.35;;;;;;;-0.26;83.50;97028.16;5055505;28;20461;-72
2022/04/03 03:09:45;;;;;;;4.18;3.30;;;;;;;-0.26;83.57;97036.00;5049951;28;20105;-71
2022/04/03 03:12:10;;;;;;;3.38;2.92;;;;;;;-0.27;83.24;97036.94;5053079;28;20413;-69
2022/04/03 03:14:35;;;;;;;4.63;3.42;;;;;;;-0.27;83.04;97036.94;5055615;28;20074;-74
2022/04/03 03:17:01;;;;;;;4.72;3.40;;;;;;;-0.25;83.29;97041.13;5055970;28;20494;-74
2022/04/03 03:19:26;;;;;;;5.18;3.33;;;;;;;-0.25;83.27;97035.91;5056143;28;20494;-73
2022/04/03 03:21:50;;;;;;;4.13;3.10;;;;;;;-0.24;83.41;97045.44;5055686;28;20101;-72
2022/04/03 03:24:15;;;;;;;5.07;3.58;;;;;;;-0.25;83.36;97040.31;5054243;28;20052;-72
2022/04/03 03:26:46;;;;;;;4.15;2.97;;;;;;;-0.24;83.64;97034.97;5053599;28;20040;-70
2022/04/03 03:29:12;;;;;;;3.22;2.90;;;;;;;-0.27;83.40;97036.94;5052318;28;20075;-73
2022/04/03 03:31:37;;;;;;;3.53;2.90;;;;;;;-0.27;83.18;97037.78;5052768;28;20076;-70
2022/04/03 03:34:02;;;;;;;3.72;2.88;;;;;;;-0.28;82.82;97038.72;5052595;28;20063;-71
2022/04/03 03:36:27;;;;;;;5.22;3.17;;;;;;;-0.26;83.26;97038.63;5052717;28;20036;-73
2022/04/03 03:38:51;;;;;;;5.43;3.65;;;;;;;-0.26;82.84;97033.38;5054850;28;20054;-73
2022/04/03 03:41:16;;;;;;;5.20;3.50;;;;;;;-0.27;83.01;97048.25;5045490;28;20127;-72
2022/04/03 03:43:42;;;;;;;4.03;3.22;;;;;;;-0.24;82.71;97041.97;5034879;28;20584;-72
2022/04/03 03:46:08;;;;;;;3.97;3.38;;;;;;;-0.23;82.57;97051.50;5034847;28;20032;-72
2022/04/03 03:48:35;;;;;;;4.32;3.47;;;;;;;-0.25;82.71;97056.84;5019358;28;20058;-72
2022/04/03 03:51:00;;;;;;;2.80;2.60;;;;;;;-0.22;83.00;97045.31;5028481;28;20046;-64
2022/04/03 03:53:25;;;;;;;3.92;2.88;;;;;;;-0.19;83.05;97051.16;5038914;28;20048;-66
2022/04/03 03:55:50;;;;;;;3.13;2.83;;;;;;;-0.23;82.97;97054.13;5038711;28;20048;-63
2022/04/03 03:58:15;;;;;;;3.65;2.80;;;;;;;-0.24;82.96;97058.53;5056003;28;20072;-68
2022/04/03 04:00:40;;;;;;;5.95;3.20;;;;;;;-0.24;82.73;97055.06;5049818;28;20106;-69
2022/04/03 04:03:05;;;;;;;3.78;3.15;;;;;;;-0.24;82.47;97062.91;5057804;28;20078;-75
2022/04/03 04:05:29;;;;;;;3.65;3.30;;;;;;;-0.24;82.38;97062.91;5058227;28;20120;-74
2022/04/03 04:07:54;;;;;;;3.78;2.70;;;;;;;-0.22;82.61;97061.84;5025116;28;20039;-75
2022/04/03 04:10:19;;;;;;;3.35;2.65;;;;;;;-0.21;82.76;97062.69;5062827;28;20123;-76
2022/04/03 04:12:46;;;;;;;4.18;2.92;;;;;;;-0.20;82.69;97073.06;5060862;28;20151;-75
2022/04/03 04:15:12;;;;;;;3.97;2.95;;;;;;;-0.20;82.87;97065.19;5061409;28;20044;-76
2022/04/03 04:17:44;;;;;;;4.78;3.47;;;;;;;-0.20;82.41;97070.44;5057757;28;20046;-76
2022/04/03 04:20:15;;;;;;;5.38;3.05;;;;;;;-0.21;82.42;97081.00;5057806;28;20051;-76
2022/04/03 04:22:41;;;;;;;4.63;3.65;;;;;;;-0.22;82.64;97080.16;5057687;28;20048;-76
2022/04/03 04:25:07;;;;;;;4.68;3.42;;;;;;;-0.19;82.75;97089.59;5039586;28;20062;-75
2022/04/03 04:27:32;;;;;;;5.22;2.78;;;;;;;-0.21;82.66;97084.47;5057126;28;20044;-75
2022/04/03 04:29:56;;;;;;;5.78;3.30;;;;;;;-0.23;82.73;97090.78;5058579;28;20047;-75
2022/04/03 04:32:21;;;;;;;4.28;2.72;;;;;;;-0.24;82.73;97087.31;5022438;28;20040;-74
2022/04/03 04:34:46;;;;;;;3.47;2.88;;;;;;;-0.23;82.75;97090.78;5056063;28;20036;-75
2022/04/03 04:37:11;;;;;;;4.45;3.15;;;;;;;-0.26;82.53;97089.19;5057202;28;20040;-76
2022/04/03 04:39:35;;;;;;;3.20;2.70;;;;;;;-0.24;82.73;97091.72;5057271;28;20047;-75
2022/04/03 04:42:00;;;;;;;3.45;2.88;;;;;;;-0.23;82.91;97090.78;5055802;28;20082;-75
2022/04/03 04:44:25;;;;;;;4.03;2.92;;;;;;;-0.21;82.81;97094.94;5022564;28;20109;-76
2022/04/03 04:46:50;;;;;;;4.75;3.55;;;;;;;-0.21;82.61;97104.56;5056442;28;20399;-74
2022/04/03 04:49:16;;;;;;;3.95;2.95;;;;;;;-0.22;82.47;97103.72;5057558;28;20032;-75
2022/04/03 04:51:41;;;;;;;4.28;2.97;;;;;;;-0.21;82.52;97101.97;5056753;28;20040;-76
2022/04/03 04:54:06;;;;;;;4.88;3.35;;;;;;;-0.20;83.06;97101.84;5055419;28;20051;-74
2022/04/03 04:56:33;;;;;;;4.55;3.13;;;;;;;-0.18;83.00;97104.38;5056593;28;20402;-76
2022/04/03 04:58:58;;;;;;;5.88;3.20;;;;;;;-0.18;83.01;97112.22;5055360;28;20055;-75
2022/04/03 05:01:23;;;;;;;3.40;2.83;;;;;;;-0.19;82.78;97115.78;5038375;28;20040;-74
2022/04/03 05:03:47;;;;;;;3.40;2.88;;;;;;;-0.18;82.57;97122.69;5038447;28;20510;-74
2022/04/03 05:06:15;;;;;;;4.70;2.97;;;;;;;-0.18;82.45;97115.69;5072303;28;20044;-76
2022/04/03 05:08:40;;;;;;;4.28;2.88;;;;;;;-0.17;82.75;97132.22;5055298;28;20039;-75
2022/04/03 05:11:06;;;;;;;4.13;2.97;;;;;;;-0.17;82.48;97129.63;5053757;28;20044;-77
2022/04/03 05:13:32;;;;;;;3.85;2.78;;;;;;;-0.17;82.57;97127.00;5056311;28;20039;-76
2022/04/03 05:15:57;;;;;;;3.88;3.17;;;;;;;-0.19;82.34;97129.72;5037831;28;20155;-75
2022/04/03 05:18:22;;;;;;;4.32;3.50;;;;;;;-0.18;81.71;97135.78;5056180;28;20122;-76
2022/04/03 05:20:47;;;;;;;3.80;2.97;;;;;;;-0.17;81.94;97140.09;5055006;28;20426;-76
2022/04/03 05:23:12;;;;;;;3.90;2.50;;;;;;;-0.16;81.77;97133.91;5022215;28;20051;-76
2022/04/03 05:25:37;;;;;;;5.07;2.97;;;;;;;-0.15;81.77;97135.59;5056267;28;20044;-76
2022/04/03 05:28:01;;;;;;;3.80;3.03;;;;;;;-0.12;81.97;97136.22;5056245;28;20048;-76
2022/04/03 05:30:26;;;;;;;4.78;3.10;;;;;;;-0.13;82.13;97136.31;5037644;28;20040;-76
2022/04/03 05:32:51;;;;;;;6.65;3.20;;;;;;;-0.13;82.02;97139.78;5004843;28;20044;-78
2022/04/03 05:35:16;;;;;;;4.07;3.28;;;;;;;-0.13;81.71;97134.53;5055364;28;20467;-77
2022/04/03 05:37:40;;;;;;;3.97;2.78;;;;;;;-0.12;82.08;97145.88;5021457;28;20040;-78
2022/04/03 05:40:07;;;;;;;3.90;3.30;;;;;;;-0.12;81.53;97141.47;5021290;28;20043;-76
2022/04/03 05:42:34;;;;;;;3.15;2.85;;;;;;;-0.11;81.78;97152.75;5038231;28;20059;-76
2022/04/03 05:44:59;;;;;;;4.22;3.55;;;;;;;-0.13;81.83;97157.28;5024373;28;20559;-75
2022/04/03 05:47:24;;;;;;;3.38;2.58;;;;;;;-0.13;81.75;97154.66;5024768;28;20069;-76
2022/04/03 05:49:49;;;;;;;14.95;3.15;;;;;;;-0.12;82.06;97151.09;5037226;28;20044;-75
2022/04/03 05:52:13;;;;;;;2.97;2.67;;;;;;;-0.13;81.85;97154.66;5037715;28;20067;-76
2022/04/03 05:54:38;;;;;;;4.10;2.80;;;;;;;-0.15;82.20;97165.22;5055312;28;20069;-76
2022/04/03 05:57:03;;;;;;;4.45;2.90;;;;;;;-0.14;81.90;97158.22;5037141;28;20043;-76
2022/04/03 05:59:28;;;;;;;3.55;2.90;;;;;;;-0.13;82.38;97173.00;5054102;28;20068;-75
2022/04/03 06:01:53;;;;;;;8.95;3.17;;;;;;;-0.12;81.64;97164.19;5054783;28;20071;-75
2022/04/03 06:04:18;;;;;;;5.47;3.63;;;;;;;-0.13;81.72;97167.75;5055451;28;20043;-74
2022/04/03 06:06:42;;;;;;;4.32;3.60;;;;;;;-0.10;81.45;97178.00;5054578;28;20089;-75
2022/04/03 06:09:08;;;;;;;3.55;2.90;;;;;;;-0.09;81.62;97183.13;5055172;28;20414;-75
2022/04/03 06:11:33;;;;;;;4.95;3.08;;;;;;;-0.07;81.63;97176.00;5037136;28;20101;-75
2022/04/03 06:13:58;;;;;;;4.38;2.88;;;;;;;-0.05;81.24;97186.38;5037116;28;20135;-76
2022/04/03 06:16:23;;;;;;;3.88;3.35;;;;;;;-0.09;81.02;97179.66;5003322;28;20036;-75
2022/04/03 06:18:48;;;;;;;3.83;3.08;;;;;;;-0.08;80.87;97184.81;5037062;28;20055;-76
2022/04/03 06:21:12;;;;;;;4.03;3.58;;;;;;;-0.09;80.77;97183.13;5036835;28;20051;-74
2022/04/03 06:23:37;;;;;;;5.72;3.88;;;;;;;-0.09;80.80;97183.13;5055127;28;20115;-75
2022/04/03 06:26:02;;;;;;;3.50;2.58;;;;;;;-0.11;80.92;97195.47;5036742;28;20035;-75
2022/04/03 06:28:27;;;;;;;3.47;2.78;;;;;;;-0.11;80.49;97189.41;5053264;28;20051;-75
2022/04/03 06:30:56;;;;;;;4.63;3.03;;;;;;;-0.12;79.72;97185.97;5036997;28;20052;-75
2022/04/03 06:33:21;;;;;;;3.58;2.85;;;;;;;-0.09;80.67;97192.75;5036620;28;20043;-69
2022/04/03 06:35:46;;;;;;;3.33;2.63;;;;;;;-0.08;80.52;97197.06;5036512;28;20058;-69
2022/04/03 06:38:13;;;;;;;3.25;2.45;;;;;;;-0.06;81.17;97198.66;5036667;28;20040;-69
2022/04/03 06:40:43;;;;;;;3.15;2.58;;;;;;;-0.08;80.86;97203.13;5054120;28;20052;-69
2022/04/03 06:43:08;;;;;;;4.70;2.72;;;;;;;-0.12;80.83;97203.47;5036080;28;20075;-68
2022/04/03 06:45:33;;;;;;;5.85;3.35;;;;;;;-0.12;80.79;97216.56;5054232;28;20037;-69
2022/04/03 06:47:59;;;;;;;5.35;3.22;;;;;;;-0.17;80.53;97216.84;5055017;28;20039;-68
2022/04/03 06:50:24;;;;;;;3.72;3.08;;;;;;;-0.17;80.86;97213.41;5019550;28;20124;-69
2022/04/03 06:52:49;;;;;;;4.28;3.33;;;;;;;-0.19;80.36;97229.22;5036180;28;20071;-68
2022/04/03 06:55:14;;;;;;;5.07;4.05;;;;;;;-0.17;80.15;97223.88;5035753;28;20044;-69
2022/04/03 06:57:39;;;;;;;4.35;2.88;;;;;;;-0.16;80.16;97231.63;5054382;28;20043;-69
2022/04/03 07:00:06;;;;;;;4.95;3.40;;;;;;;-0.12;80.00;97235.72;5053226;28;20055;-69
2022/04/03 07:02:31;;;;;;;4.15;3.47;;;;;;;-0.12;80.40;97240.97;5054271;28;20047;-70
2022/04/03 07:04:56;;;;;;;4.43;3.38;;;;;;;-0.09;79.70;97245.13;5054317;28;20093;-70
2022/04/03 07:07:22;;;;;;;5.25;3.38;;;;;;;-0.09;79.75;97261.69;5053353;28;20036;-70
2022/04/03 07:09:47;;;;;;;4.60;3.40;;;;;;;-0.08;80.60;97258.13;5035858;28;20495;-70
2022/04/03 07:12:12;;;;;;;4.15;3.03;;;;;;;-0.08;80.41;97259.91;5032517;28;20457;-69
2022/04/03 07:14:37;;;;;;;3.72;3.10;;;;;;;-0.11;80.28;97263.56;5037848;28;20509;-70
2022/04/03 07:17:02;;;;;;;5.07;3.45;;;;;;;-0.13;79.80;97262.84;5038894;28;20098;-70
2022/04/03 07:19:27;;;;;;;4.32;3.50;;;;;;;-0.12;79.82;97279.41;5019908;28;20046;-70
2022/04/03 07:21:51;;;;;;;4.47;3.38;;;;;;;-0.11;79.93;97266.19;5003495;28;20407;-70
2022/04/03 07:24:17;;;;;;;5.57;3.58;;;;;;;-0.10;79.96;97282.75;5003607;28;20159;-75
2022/04/03 07:26:42;;;;;;;4.53;3.65;;;;;;;-0.14;79.59;97286.53;5003612;28;20025;-75
2022/04/03 07:29:06;;;;;;;5.15;3.70;;;;;;;-0.14;79.41;97286.53;5019869;28;20058;-75
2022/04/03 07:31:31;;;;;;;5.45;3.78;;;;;;;-0.16;79.14;97299.72;5019881;28;20094;-76
2022/04/03 07:33:56;;;;;;;5.03;3.60;;;;;;;-0.17;78.24;97299.81;5019735;28;20048;-75
2022/04/03 07:36:21;;;;;;;5.15;3.50;;;;;;;-0.16;78.07;97299.72;5002971;28;20123;-74
2022/04/03 07:38:46;;;;;;;4.13;3.47;;;;;;;-0.16;78.55;97302.31;5003439;28;20593;-74
2022/04/03 07:41:11;;;;;;;3.78;3.40;;;;;;;-0.14;78.54;97305.69;5020428;28;20502;-76
2022/04/03 07:43:36;;;;;;;6.03;4.15;;;;;;;-0.13;78.65;97306.53;5058353;28;20082;-77
2022/04/03 07:46:00;;;;;;;4.97;4.22;;;;;;;-0.10;79.15;97317.63;5058423;28;20027;-74
2022/04/03 07:48:25;;;;;;;5.50;4.07;;;;;;;-0.08;79.15;97314.91;5076436;28;20059;-75
2022/04/03 07:50:51;;;;;;;7.95;4.47;;;;;;;-0.08;79.40;97310.50;5041433;28;20035;-74
2022/04/03 07:53:15;;;;;;;6.07;4.03;;;;;;;-0.06;79.23;97320.88;5041661;28;20100;-73
2022/04/03 07:55:40;;;;;;;7.10;4.13;;;;;;;-0.07;79.26;97320.03;5076357;28;20079;-73
2022/04/03 07:58:06;;;;;;;9.55;3.70;;;;;;;-0.05;79.09;97325.19;5058106;28;20743;-73
2022/04/03 08:00:31;;;;;;;5.75;3.63;;;;;;;-0.02;79.22;97325.00;5041674;28;20517;-74
2022/04/03 08:02:56;;;;;;;4.68;3.67;;;;;;;-0.02;79.18;97330.22;5041800;28;20581;-73
2022/04/03 08:05:20;;;;;;;5.88;4.10;;;;;;;-0.04;78.06;97339.97;5058802;28;20401;-73
2022/04/03 08:07:47;;;;;;;5.18;3.72;;;;;;;-0.04;77.77;97339.97;5058038;28;20521;-75
2022/04/03 08:10:17;;;;;;;6.18;4.20;;;;;;;-0.01;77.96;97342.38;5040983;28;20071;-72
2022/04/03 08:12:44;;;;;;;4.50;3.70;;;;;;;-0.03;77.46;97344.25;5058454;28;20042;-73
2022/04/03 08:15:11;;;;;;;6.10;3.60;;;;;;;-0.03;77.80;97342.50;5041777;28;20048;-74
2022/04/03 08:17:39;;;;;;;6.55;4.60;;;;;;;-0.04;77.41;97348.66;5058580;28;20139;-73
2022/04/03 08:20:11;;;;;;;6.18;3.90;;;;;;;-0.02;77.58;97357.25;5058510;28;20055;-74
2022/04/03 08:22:37;;;;;;;6.43;3.97;;;;;;;0.01;78.15;97364.06;5058632;28;20035;-73
2022/04/03 08:25:02;;;;;;;4.95;3.55;;;;;;;0.03;78.26;97364.81;5074881;28;20078;-74
2022/04/03 08:28:00;;;;;;;6.07;3.92;;;;;;;0.09;78.11;97368.81;5058681;28;20065;-73
2022/04/03 08:30:28;;;;;;;6.18;3.70;;;;;;;0.08;78.33;97360.13;4997546;28;20473;-72
2022/04/03 08:32:53;;;;;;;4.30;3.55;;;;;;;0.07;78.33;97371.53;5013894;28;21174;-72
2022/04/03 08:35:20;;;;;;;5.70;3.88;;;;;;;0.09;77.59;97363.56;4997267;28;20041;-72
2022/04/03 08:37:47;;;;;;;9.68;4.00;;;;;;;0.12;77.91;97363.34;5014374;28;20041;-73
2022/04/03 08:40:13;;;;;;;7.85;4.10;;;;;;;0.14;76.79;97378.03;5014403;28;20165;-72
2022/04/03 08:42:40;;;;;;;7.65;4.10;;;;;;;0.19;77.23;97375.97;5017443;28;20461;-73
2022/04/03 08:45:11;;;;;;;5.57;4.00;;;;;;;0.19;76.59;97378.59;4998740;28;20051;-73
2022/04/03 08:47:42;;;;;;;10.27;4.20;;;;;;;0.21;75.20;97371.47;5016436;28;20586;-73
2022/04/03 08:50:07;;;;;;;4.57;3.50;;;;;;;0.24;76.29;97378.25;5000452;28;20052;-72
2022/04/03 08:52:35;;;;;;;5.15;4.00;;;;;;;0.24;76.11;97370.41;4984978;28;20049;-72
2022/04/03 08:55:00;;;;;;;5.10;4.07;;;;;;;0.26;76.06;97382.47;5003275;28;20068;-74
2022/04/03 08:57:24;;;;;;;7.53;4.10;;;;;;;0.26;75.31;97377.22;5007733;28;20152;-72
2022/04/03 08:59:51;;;;;;;5.95;3.88;;;;;;;0.28;75.82;97380.59;5019979;28;20056;-72
2022/04/03 09:02:16;;;;;;;8.48;3.70;;;;;;;0.27;74.47;97380.69;5020293;28;20045;-72
2022/04/03 09:04:41;;;;;;;7.57;4.70;;;;;;;0.26;74.01;97382.47;5018123;28;20045;-72
2022/04/03 09:07:06;;;;;;;6.82;3.92;;;;;;;0.25;74.18;97383.41;5082598;28;20052;-72
2022/04/03 09:09:30;;;;;;;6.57;4.32;;;;;;;0.25;72.95;97388.66;5050861;28;20108;-72
2022/04/03 09:12:17;;;;;;;6.03;4.22;;;;;;;0.35;74.88;97381.00;5067034;28;20046;-73
2022/04/03 09:14:46;;;;;;;7.97;5.13;;;;;;;0.35;74.39;97387.09;5065461;28;20501;-71
2022/04/03 09:17:10;;;;;;;6.57;3.92;;;;;;;0.39;75.00;97392.16;5066149;28;20043;-73
2022/04/03 09:19:35;;;;;;;5.40;3.95;;;;;;;0.42;75.88;97399.81;5083047;28;20051;-71
2022/04/03 09:22:01;;;;;;;4.70;3.97;;;;;;;0.45;75.88;97391.75;5026229;28;20496;-71
2022/04/03 09:24:26;;;;;;;6.10;4.20;;;;;;;0.44;75.07;97396.16;5078766;28;20075;-73
2022/04/03 09:27:02;;;;;;;6.82;4.70;;;;;;;0.47;72.09;97397.72;5078438;28;20046;-71
2022/04/03 09:29:27;;;;;;;6.60;4.45;;;;;;;0.49;73.06;97406.31;5075765;28;20056;-71
2022/04/03 09:32:11;;;;;;;8.25;5.30;;;;;;;0.51;74.19;97407.91;5075699;28;20513;-73
2022/04/03 09:34:36;;;;;;;6.30;4.37;;;;;;;0.50;74.26;97415.84;5076485;28;20477;-73
2022/04/03 09:37:06;;;;;;;7.47;4.35;;;;;;;0.52;74.80;97424.47;5057079;28;20104;-73
2022/04/03 09:39:32;;;;;;;7.15;4.53;;;;;;;0.52;75.46;97421.84;5041345;28;20039;-73
2022/04/03 09:42:06;;;;;;;7.32;4.10;;;;;;;0.50;74.26;97421.09;5076101;28;20051;-71
2022/04/03 09:44:34;;;;;;;6.10;4.32;;;;;;;0.53;74.99;97431.41;5076295;28;20100;-72
2022/04/03 09:47:26;;;;;;;6.03;4.20;;;;;;;0.53;74.27;97442.72;5040865;28;20142;-73
2022/04/03 09:49:55;;;;;;;8.15;4.80;;;;;;;0.53;75.28;97447.97;5069974;28;20051;-73
2022/04/03 09:52:51;;;;;;;7.00;4.55;;;;;;;0.58;75.21;97447.63;5089428;28;20039;-72
2022/04/03 09:55:17;;;;;;;;;;;;;;;0.61;75.74;97450.91;5072130;28;20112;-73
2022/04/03 09:57:50;;;;;;;6.82;3.60;;;;;;;0.55;76.01;97455.72;5056140;28;19915;-73
2022/04/03 10:00:29;;;;;;;5.47;3.58;;;;;;;0.44;73.46;97453.81;5077431;28;20098;-73
2022/04/03 10:03:00;;;;;;;5.85;4.43;;;;;;;0.48;74.07;97449.19;5075974;28;20442;-73
2022/04/03 10:05:30;;;;;;;6.65;3.85;;;;;;;0.48;73.99;97455.28;5075954;28;20031;-75
2022/04/03 10:07:59;;;;;;;7.05;4.35;;;;;;;0.49;70.95;97458.75;5057834;28;20134;-74
2022/04/03 10:10:25;;;;;;;8.35;4.80;;;;;;;0.56;73.94;97462.66;5057868;28;20556;-75
2022/04/03 10:12:54;;;;;;;10.60;5.72;;;;;;;0.59;74.95;97457.19;5057960;28;20050;-76
2022/04/03 10:15:19;;;;;;;9.70;4.85;;;;;;;0.58;75.52;97455.50;5058202;28;20517;-76
2022/04/03 10:17:44;;;;;;;8.45;4.88;;;;;;;0.64;76.15;97455.13;5024014;28;20043;-76
2022/04/03 10:20:09;;;;;;;11.75;5.03;;;;;;;0.62;76.28;97464.84;5076767;28;20048;-75
2022/04/03 10:22:38;;;;;;;7.22;4.70;;;;;;;0.59;76.08;97468.53;5058025;28;20631;-76
2022/04/03 10:25:07;;;;;;;7.35;4.13;;;;;;;0.60;75.99;97461.50;5058010;28;20040;-76
2022/04/03 10:27:39;;;;;;;5.13;4.13;;;;;;;0.62;75.68;97463.06;5057390;28;20043;-74
2022/04/03 10:30:06;;;;;;;7.57;3.88;;;;;;;0.63;75.44;97461.28;5058008;28;20032;-76
2022/04/03 10:32:34;;;;;;;6.57;3.78;;;;;;;0.61;74.38;97456.16;5058003;28;20048;-76
2022/04/03 10:35:05;;;;;;;6.30;3.72;;;;;;;0.58;70.37;97461.59;5058140;28;20052;-78
2022/04/03 10:37:32;;;;;;;6.22;4.32;;;;;;;0.60;70.95;97464.97;5057727;28;20091;-76
2022/04/03 10:40:09;;;;;;;6.03;4.30;;;;;;;0.57;70.56;97466.94;5057741;28;20518;-78
2022/04/03 10:43:02;;;;;;;5.22;3.78;;;;;;;0.60;72.24;97474.59;5063373;28;20060;-78
2022/04/03 10:45:27;;;;;;;5.88;4.45;;;;;;;0.56;72.71;97481.84;5018600;28;20045;-75
2022/04/03 10:47:54;;;;;;;6.10;4.65;;;;;;;0.58;73.63;97486.97;5014112;28;20049;-71
2022/04/03 10:50:22;;;;;;;7.90;5.25;;;;;;;0.59;74.99;97484.25;5013252;28;20072;-71
2022/04/03 10:52:47;;;;;;;6.68;4.40;;;;;;;0.56;74.23;97473.97;5014273;28;20082;-69
2022/04/03 10:55:19;;;;;;;6.15;4.28;;;;;;;0.57;73.23;97474.78;5030393;28;20420;-70
2022/04/03 10:58:06;;;;;;;6.68;4.20;;;;;;;0.57;73.22;97478.25;4997002;28;20044;-69
2022/04/03 11:00:32;;;;;;;6.90;4.70;;;;;;;0.60;74.27;97496.41;5015055;28;20040;-68
2022/04/03 11:02:57;;;;;;;8.18;5.10;;;;;;;0.60;75.09;97493.78;5014081;28;20128;-69
2022/04/03 11:05:22;;;;;;;6.93;3.72;;;;;;;0.61;75.35;97497.25;5015887;28;20143;-67
2022/04/03 11:07:51;;;;;;;6.80;4.40;;;;;;;0.59;75.37;97499.13;5010203;28;20644;-66
2022/04/03 11:10:57;;;;;;;7.15;4.70;;;;;;;0.65;75.35;97501.38;5004975;28;20045;-67
2022/04/03 11:13:34;;;;;;;5.63;4.13;;;;;;;0.65;75.76;97504.00;4973341;28;20443;-68
2022/04/03 11:16:09;;;;;;;6.88;4.15;;;;;;;0.65;76.13;97504.84;5012300;28;20056;-68
2022/04/03 11:18:50;;;;;;;8.05;5.50;;;;;;;0.65;76.80;97512.69;4992992;28;20077;-68
2022/04/03 11:21:17;;;;;;;10.10;4.88;;;;;;;0.65;77.21;97511.88;4994052;28;20121;-66
2022/04/03 11:24:06;;;;;;;8.27;4.95;;;;;;;0.69;77.43;97511.53;4994713;28;20129;-66
2022/04/03 11:26:32;;;;;;;7.93;4.47;;;;;;;0.67;77.39;97513.44;4983888;28;20057;-66
2022/04/03 11:28:58;;;;;;;10.50;4.10;;;;;;;0.63;77.26;97509.34;4994452;28;20125;-66
2022/04/03 11:31:24;;;;;;;5.80;4.07;;;;;;;0.60;77.53;97532.28;5010025;28;20103;-66
2022/04/03 11:33:49;;;;;;;6.28;3.50;;;;;;;0.51;77.29;97531.09;4994595;28;20061;-66